sensor_id;sensor_type;location;lat;lon;timestamp;temperature;humidity
64874;HTU21D;51367;45.204;38.576;2023-10-31T00:00:17;7.93;74.38
64874;HTU21D;51367;45.204;38.576;2023-10-31T00:02:43;7.91;74.38
64874;HTU21D;51367;45.204;38.576;2023-10-31T00:05:09;7.89;74.37
64874;HTU21D;51367;45.204;38.576;2023-10-31T00:07:35;7.88;74.37
64874;HTU21D;51367;45.204;38.576;2023-10-31T00:10:01;7.86;74.39
64874;HTU21D;51367;45.204;38.576;2023-10-31T00:12:27;7.84;74.38
64874;HTU21D;51367;45.204;38.576;2023-10-31T00:14:53;7.81;74.36
64874;HTU21D;51367;45.204;38.576;2023-10-31T00:17:19;7.75;74.40
64874;HTU21D;51367;45.204;38.576;2023-10-31T00:19:45;7.65;74.52
64874;HTU21D;51367;45.204;38.576;2023-10-31T00:22:11;7.60;74.65
64874;HTU21D;51367;45.204;38.576;2023-10-31T00:24:36;7.59;74.76
64874;HTU21D;51367;45.204;38.576;2023-10-31T00:27:02;7.56;74.78
64874;HTU21D;51367;45.204;38.576;2023-10-31T00:29:28;7.57;74.77
64874;HTU21D;51367;45.204;38.576;2023-10-31T00:31:54;7.54;74.75
64874;HTU21D;51367;45.204;38.576;2023-10-31T00:34:20;7.54;74.78
64874;HTU21D;51367;45.204;38.576;2023-10-31T00:36:46;7.53;74.76
64874;HTU21D;51367;45.204;38.576;2023-10-31T00:39:12;7.52;74.96
64874;HTU21D;51367;45.204;38.576;2023-10-31T00:41:39;7.55;75.02
64874;HTU21D;51367;45.204;38.576;2023-10-31T00:44:05;7.60;74.96
64874;HTU21D;51367;45.204;38.576;2023-10-31T00:46:31;7.62;74.90
64874;HTU21D;51367;45.204;38.576;2023-10-31T00:48:57;7.65;74.86
64874;HTU21D;51367;45.204;38.576;2023-10-31T00:51:23;7.65;74.83
64874;HTU21D;51367;45.204;38.576;2023-10-31T00:53:49;7.64;74.83
64874;HTU21D;51367;45.204;38.576;2023-10-31T00:56:15;7.63;74.84
64874;HTU21D;51367;45.204;38.576;2023-10-31T00:58:41;7.62;74.86
64874;HTU21D;51367;45.204;38.576;2023-10-31T01:01:07;7.60;74.91
64874;HTU21D;51367;45.204;38.576;2023-10-31T01:03:32;7.57;74.95
64874;HTU21D;51367;45.204;38.576;2023-10-31T01:05:58;7.56;74.98
64874;HTU21D;51367;45.204;38.576;2023-10-31T01:08:25;7.55;75.01
64874;HTU21D;51367;45.204;38.576;2023-10-31T01:10:50;7.54;75.02
64874;HTU21D;51367;45.204;38.576;2023-10-31T01:13:17;7.54;75.05
64874;HTU21D;51367;45.204;38.576;2023-10-31T01:15:43;7.53;75.09
64874;HTU21D;51367;45.204;38.576;2023-10-31T01:18:09;7.53;75.08
64874;HTU21D;51367;45.204;38.576;2023-10-31T01:20:35;7.49;75.08
64874;HTU21D;51367;45.204;38.576;2023-10-31T01:23:02;7.46;75.09
64874;HTU21D;51367;45.204;38.576;2023-10-31T01:25:28;7.40;75.18
64874;HTU21D;51367;45.204;38.576;2023-10-31T01:27:54;7.37;75.26
64874;HTU21D;51367;45.204;38.576;2023-10-31T01:30:20;7.35;75.33
64874;HTU21D;51367;45.204;38.576;2023-10-31T01:32:46;7.34;75.35
64874;HTU21D;51367;45.204;38.576;2023-10-31T01:35:12;7.33;75.40
64874;HTU21D;51367;45.204;38.576;2023-10-31T01:37:38;7.34;75.38
64874;HTU21D;51367;45.204;38.576;2023-10-31T01:40:04;7.33;75.38
64874;HTU21D;51367;45.204;38.576;2023-10-31T01:42:33;7.33;75.38
64874;HTU21D;51367;45.204;38.576;2023-10-31T01:45:00;7.34;75.38
64874;HTU21D;51367;45.204;38.576;2023-10-31T01:47:25;7.33;75.35
64874;HTU21D;51367;45.204;38.576;2023-10-31T01:49:52;7.31;75.35
64874;HTU21D;51367;45.204;38.576;2023-10-31T01:52:18;7.30;75.37
64874;HTU21D;51367;45.204;38.576;2023-10-31T01:54:44;7.31;75.38
64874;HTU21D;51367;45.204;38.576;2023-10-31T01:57:10;7.31;75.38
64874;HTU21D;51367;45.204;38.576;2023-10-31T01:59:37;7.30;75.38
64874;HTU21D;51367;45.204;38.576;2023-10-31T02:02:03;7.30;75.39
64874;HTU21D;51367;45.204;38.576;2023-10-31T02:04:30;7.30;75.38
64874;HTU21D;51367;45.204;38.576;2023-10-31T02:06:56;7.28;75.39
64874;HTU21D;51367;45.204;38.576;2023-10-31T02:09:22;7.27;75.41
64874;HTU21D;51367;45.204;38.576;2023-10-31T02:11:50;7.25;75.42
64874;HTU21D;51367;45.204;38.576;2023-10-31T02:14:16;7.19;75.47
64874;HTU21D;51367;45.204;38.576;2023-10-31T02:16:42;7.13;75.56
64874;HTU21D;51367;45.204;38.576;2023-10-31T02:19:09;7.12;75.64
64874;HTU21D;51367;45.204;38.576;2023-10-31T02:21:39;7.10;75.70
64874;HTU21D;51367;45.204;38.576;2023-10-31T02:24:05;7.08;75.76
64874;HTU21D;51367;45.204;38.576;2023-10-31T02:26:32;7.05;75.74
64874;HTU21D;51367;45.204;38.576;2023-10-31T02:28:59;7.05;75.79
64874;HTU21D;51367;45.204;38.576;2023-10-31T02:31:25;7.04;75.81
64874;HTU21D;51367;45.204;38.576;2023-10-31T02:33:52;7.03;75.83
64874;HTU21D;51367;45.204;38.576;2023-10-31T02:36:19;7.02;75.82
64874;HTU21D;51367;45.204;38.576;2023-10-31T02:38:45;7.00;75.79
64874;HTU21D;51367;45.204;38.576;2023-10-31T02:41:12;6.97;75.77
64874;HTU21D;51367;45.204;38.576;2023-10-31T02:43:38;6.91;75.86
64874;HTU21D;51367;45.204;38.576;2023-10-31T02:46:04;6.84;75.96
64874;HTU21D;51367;45.204;38.576;2023-10-31T02:48:30;6.79;76.11
64874;HTU21D;51367;45.204;38.576;2023-10-31T02:51:06;6.75;76.15
64874;HTU21D;51367;45.204;38.576;2023-10-31T02:53:35;6.75;76.18
64874;HTU21D;51367;45.204;38.576;2023-10-31T02:56:02;6.73;76.16
64874;HTU21D;51367;45.204;38.576;2023-10-31T02:58:28;6.72;76.16
64874;HTU21D;51367;45.204;38.576;2023-10-31T03:00:54;6.72;76.14
64874;HTU21D;51367;45.204;38.576;2023-10-31T03:03:19;6.70;76.14
64874;HTU21D;51367;45.204;38.576;2023-10-31T03:05:45;6.70;76.14
64874;HTU21D;51367;45.204;38.576;2023-10-31T03:08:11;6.69;76.13
64874;HTU21D;51367;45.204;38.576;2023-10-31T03:10:38;6.68;76.12
64874;HTU21D;51367;45.204;38.576;2023-10-31T03:13:04;6.67;76.12
64874;HTU21D;51367;45.204;38.576;2023-10-31T03:15:30;6.66;76.10
64874;HTU21D;51367;45.204;38.576;2023-10-31T03:17:57;6.66;76.08
64874;HTU21D;51367;45.204;38.576;2023-10-31T03:20:23;6.66;76.09
64874;HTU21D;51367;45.204;38.576;2023-10-31T03:22:48;6.65;76.11
64874;HTU21D;51367;45.204;38.576;2023-10-31T03:25:14;6.63;76.06
64874;HTU21D;51367;45.204;38.576;2023-10-31T03:27:40;6.58;76.06
64874;HTU21D;51367;45.204;38.576;2023-10-31T03:30:07;6.54;76.10
64874;HTU21D;51367;45.204;38.576;2023-10-31T03:32:33;6.51;76.16
64874;HTU21D;51367;45.204;38.576;2023-10-31T03:34:59;6.46;76.19
64874;HTU21D;51367;45.204;38.576;2023-10-31T03:37:24;6.42;76.21
64874;HTU21D;51367;45.204;38.576;2023-10-31T03:39:50;6.34;76.31
64874;HTU21D;51367;45.204;38.576;2023-10-31T03:42:16;6.29;76.50
64874;HTU21D;51367;45.204;38.576;2023-10-31T03:44:42;6.29;76.60
64874;HTU21D;51367;45.204;38.576;2023-10-31T03:47:08;6.30;76.61
64874;HTU21D;51367;45.204;38.576;2023-10-31T03:49:38;6.31;76.58
64874;HTU21D;51367;45.204;38.576;2023-10-31T03:52:04;6.35;76.53
64874;HTU21D;51367;45.204;38.576;2023-10-31T03:54:30;6.38;76.49
64874;HTU21D;51367;45.204;38.576;2023-10-31T03:56:56;6.39;76.44
64874;HTU21D;51367;45.204;38.576;2023-10-31T03:59:22;6.37;76.41
64874;HTU21D;51367;45.204;38.576;2023-10-31T04:01:48;6.34;76.35
64874;HTU21D;51367;45.204;38.576;2023-10-31T04:04:14;6.27;76.46
64874;HTU21D;51367;45.204;38.576;2023-10-31T04:06:40;6.24;76.56
64874;HTU21D;51367;45.204;38.576;2023-10-31T04:09:07;6.24;76.61
64874;HTU21D;51367;45.204;38.576;2023-10-31T04:11:33;6.22;76.65
64874;HTU21D;51367;45.204;38.576;2023-10-31T04:13:59;6.20;76.72
64874;HTU21D;51367;45.204;38.576;2023-10-31T04:16:25;6.21;76.72
64874;HTU21D;51367;45.204;38.576;2023-10-31T04:18:51;6.15;76.78
64874;HTU21D;51367;45.204;38.576;2023-10-31T04:21:17;6.14;76.87
64874;HTU21D;51367;45.204;38.576;2023-10-31T04:23:42;6.11;76.95
64874;HTU21D;51367;45.204;38.576;2023-10-31T04:26:08;6.15;77.02
64874;HTU21D;51367;45.204;38.576;2023-10-31T04:28:34;6.20;77.00
64874;HTU21D;51367;45.204;38.576;2023-10-31T04:31:00;6.22;76.89
64874;HTU21D;51367;45.204;38.576;2023-10-31T04:33:26;6.19;76.90
64874;HTU21D;51367;45.204;38.576;2023-10-31T04:35:52;6.20;77.03
64874;HTU21D;51367;45.204;38.576;2023-10-31T04:38:18;6.20;77.08
64874;HTU21D;51367;45.204;38.576;2023-10-31T04:40:44;6.25;77.18
64874;HTU21D;51367;45.204;38.576;2023-10-31T04:43:09;6.31;77.18
64874;HTU21D;51367;45.204;38.576;2023-10-31T04:45:35;6.39;77.15
64874;HTU21D;51367;45.204;38.576;2023-10-31T04:48:01;6.45;77.05
64874;HTU21D;51367;45.204;38.576;2023-10-31T04:50:27;6.54;77.02
64874;HTU21D;51367;45.204;38.576;2023-10-31T04:52:53;6.63;76.96
64874;HTU21D;51367;45.204;38.576;2023-10-31T04:55:19;6.68;76.92
64874;HTU21D;51367;45.204;38.576;2023-10-31T04:57:45;6.74;76.98
64874;HTU21D;51367;45.204;38.576;2023-10-31T05:00:11;6.84;76.97
64874;HTU21D;51367;45.204;38.576;2023-10-31T05:02:37;6.96;76.89
64874;HTU21D;51367;45.204;38.576;2023-10-31T05:05:03;7.07;76.84
64874;HTU21D;51367;45.204;38.576;2023-10-31T05:07:29;7.18;76.80
64874;HTU21D;51367;45.204;38.576;2023-10-31T05:09:55;7.29;76.76
64874;HTU21D;51367;45.204;38.576;2023-10-31T05:12:21;7.44;76.84
64874;HTU21D;51367;45.204;38.576;2023-10-31T05:14:47;7.64;77.35
64874;HTU21D;51367;45.204;38.576;2023-10-31T05:17:13;8.03;78.26
64874;HTU21D;51367;45.204;38.576;2023-10-31T05:19:39;8.56;78.71
64874;HTU21D;51367;45.204;38.576;2023-10-31T05:22:05;9.10;78.76
64874;HTU21D;51367;45.204;38.576;2023-10-31T05:24:31;9.60;78.65
64874;HTU21D;51367;45.204;38.576;2023-10-31T05:26:57;9.94;78.75
64874;HTU21D;51367;45.204;38.576;2023-10-31T05:29:23;10.25;79.05
64874;HTU21D;51367;45.204;38.576;2023-10-31T05:31:49;10.69;79.46
64874;HTU21D;51367;45.204;38.576;2023-10-31T05:34:15;11.19;79.31
64874;HTU21D;51367;45.204;38.576;2023-10-31T05:36:41;11.64;78.70
64874;HTU21D;51367;45.204;38.576;2023-10-31T05:39:07;12.05;78.22
64874;HTU21D;51367;45.204;38.576;2023-10-31T05:41:34;12.47;77.90
64874;HTU21D;51367;45.204;38.576;2023-10-31T05:44:01;12.90;77.73
64874;HTU21D;51367;45.204;38.576;2023-10-31T05:46:26;13.33;77.44
64874;HTU21D;51367;45.204;38.576;2023-10-31T05:48:53;13.74;77.02
64874;HTU21D;51367;45.204;38.576;2023-10-31T05:51:19;14.09;76.72
64874;HTU21D;51367;45.204;38.576;2023-10-31T05:53:47;14.37;76.91
64874;HTU21D;51367;45.204;38.576;2023-10-31T05:56:14;14.71;77.50
64874;HTU21D;51367;45.204;38.576;2023-10-31T05:58:41;15.14;77.88
64874;HTU21D;51367;45.204;38.576;2023-10-31T06:01:07;15.54;77.65
64874;HTU21D;51367;45.204;38.576;2023-10-31T06:03:33;15.69;77.34
64874;HTU21D;51367;45.204;38.576;2023-10-31T06:05:59;15.77;77.60
64874;HTU21D;51367;45.204;38.576;2023-10-31T06:08:25;15.90;77.84
64874;HTU21D;51367;45.204;38.576;2023-10-31T06:10:55;16.08;77.71
64874;HTU21D;51367;45.204;38.576;2023-10-31T06:13:21;16.12;76.89
64874;HTU21D;51367;45.204;38.576;2023-10-31T06:15:47;16.05;76.12
64874;HTU21D;51367;45.204;38.576;2023-10-31T06:18:13;16.03;76.28
64874;HTU21D;51367;45.204;38.576;2023-10-31T06:20:39;16.10;75.97
64874;HTU21D;51367;45.204;38.576;2023-10-31T06:23:05;16.22;75.79
64874;HTU21D;51367;45.204;38.576;2023-10-31T06:25:31;16.43;76.40
64874;HTU21D;51367;45.204;38.576;2023-10-31T06:27:57;16.62;76.59
64874;HTU21D;51367;45.204;38.576;2023-10-31T06:30:23;16.91;76.83
64874;HTU21D;51367;45.204;38.576;2023-10-31T06:32:53;17.25;77.40
64874;HTU21D;51367;45.204;38.576;2023-10-31T06:35:19;17.75;77.56
64874;HTU21D;51367;45.204;38.576;2023-10-31T06:37:45;18.22;77.09
64874;HTU21D;51367;45.204;38.576;2023-10-31T06:40:11;18.72;77.26
64874;HTU21D;51367;45.204;38.576;2023-10-31T06:42:37;19.23;76.33
64874;HTU21D;51367;45.204;38.576;2023-10-31T06:45:03;19.58;76.33
64874;HTU21D;51367;45.204;38.576;2023-10-31T06:47:30;19.96;75.98
64874;HTU21D;51367;45.204;38.576;2023-10-31T06:49:56;20.29;75.48
64874;HTU21D;51367;45.204;38.576;2023-10-31T06:52:22;20.74;74.60
64874;HTU21D;51367;45.204;38.576;2023-10-31T06:54:48;21.19;73.31
64874;HTU21D;51367;45.204;38.576;2023-10-31T06:57:13;21.58;71.93
64874;HTU21D;51367;45.204;38.576;2023-10-31T06:59:41;21.85;70.74
64874;HTU21D;51367;45.204;38.576;2023-10-31T07:02:07;22.09;69.68
64874;HTU21D;51367;45.204;38.576;2023-10-31T07:04:34;22.29;68.76
64874;HTU21D;51367;45.204;38.576;2023-10-31T07:07:00;22.37;68.06
64874;HTU21D;51367;45.204;38.576;2023-10-31T07:09:26;22.34;66.48
64874;HTU21D;51367;45.204;38.576;2023-10-31T07:11:53;22.09;67.21
64874;HTU21D;51367;45.204;38.576;2023-10-31T07:14:19;22.06;67.50
64874;HTU21D;51367;45.204;38.576;2023-10-31T07:16:45;22.14;67.55
64874;HTU21D;51367;45.204;38.576;2023-10-31T07:19:11;22.28;67.05
64874;HTU21D;51367;45.204;38.576;2023-10-31T07:21:37;22.32;66.72
64874;HTU21D;51367;45.204;38.576;2023-10-31T07:24:03;22.27;66.53
64874;HTU21D;51367;45.204;38.576;2023-10-31T07:26:29;22.17;66.33
64874;HTU21D;51367;45.204;38.576;2023-10-31T07:28:55;21.97;66.07
64874;HTU21D;51367;45.204;38.576;2023-10-31T07:31:21;21.87;66.17
64874;HTU21D;51367;45.204;38.576;2023-10-31T07:33:47;21.89;66.33
64874;HTU21D;51367;45.204;38.576;2023-10-31T07:36:13;22.12;66.27
64874;HTU21D;51367;45.204;38.576;2023-10-31T07:38:39;22.41;65.77
64874;HTU21D;51367;45.204;38.576;2023-10-31T07:41:05;22.60;65.10
64874;HTU21D;51367;45.204;38.576;2023-10-31T07:43:31;22.79;64.00
64874;HTU21D;51367;45.204;38.576;2023-10-31T07:45:57;22.90;63.19
64874;HTU21D;51367;45.204;38.576;2023-10-31T07:48:23;22.95;62.51
64874;HTU21D;51367;45.204;38.576;2023-10-31T07:50:49;23.01;62.04
64874;HTU21D;51367;45.204;38.576;2023-10-31T07:53:14;23.03;61.86
64874;HTU21D;51367;45.204;38.576;2023-10-31T07:55:40;22.98;61.60
64874;HTU21D;51367;45.204;38.576;2023-10-31T07:58:06;22.88;61.70
64874;HTU21D;51367;45.204;38.576;2023-10-31T08:00:32;22.75;61.46
64874;HTU21D;51367;45.204;38.576;2023-10-31T08:03:00;22.63;61.25
64874;HTU21D;51367;45.204;38.576;2023-10-31T08:05:26;22.54;60.69
64874;HTU21D;51367;45.204;38.576;2023-10-31T08:07:52;22.43;60.54
64874;HTU21D;51367;45.204;38.576;2023-10-31T08:10:18;22.42;60.57
64874;HTU21D;51367;45.204;38.576;2023-10-31T08:12:44;22.46;60.15
64874;HTU21D;51367;45.204;38.576;2023-10-31T08:15:10;22.46;59.69
64874;HTU21D;51367;45.204;38.576;2023-10-31T08:17:36;22.43;59.52
64874;HTU21D;51367;45.204;38.576;2023-10-31T08:20:02;22.40;59.08
64874;HTU21D;51367;45.204;38.576;2023-10-31T08:22:31;22.37;59.00
64874;HTU21D;51367;45.204;38.576;2023-10-31T08:24:57;22.29;58.76
64874;HTU21D;51367;45.204;38.576;2023-10-31T08:27:23;22.18;58.77
64874;HTU21D;51367;45.204;38.576;2023-10-31T08:29:49;22.09;58.69
64874;HTU21D;51367;45.204;38.576;2023-10-31T08:32:15;21.96;58.67
64874;HTU21D;51367;45.204;38.576;2023-10-31T08:34:41;21.83;58.58
64874;HTU21D;51367;45.204;38.576;2023-10-31T08:37:07;21.76;58.72
64874;HTU21D;51367;45.204;38.576;2023-10-31T08:39:33;21.76;58.76
64874;HTU21D;51367;45.204;38.576;2023-10-31T08:41:59;21.74;58.59
64874;HTU21D;51367;45.204;38.576;2023-10-31T08:44:25;21.69;58.51
64874;HTU21D;51367;45.204;38.576;2023-10-31T08:46:51;21.65;58.61
64874;HTU21D;51367;45.204;38.576;2023-10-31T08:49:17;21.70;58.64
64874;HTU21D;51367;45.204;38.576;2023-10-31T08:51:44;21.72;58.54
64874;HTU21D;51367;45.204;38.576;2023-10-31T08:54:10;21.77;58.42
64874;HTU21D;51367;45.204;38.576;2023-10-31T08:56:36;21.78;58.29
64874;HTU21D;51367;45.204;38.576;2023-10-31T08:59:02;21.78;58.25
64874;HTU21D;51367;45.204;38.576;2023-10-31T09:01:29;21.80;58.24
64874;HTU21D;51367;45.204;38.576;2023-10-31T09:03:55;21.83;58.15
64874;HTU21D;51367;45.204;38.576;2023-10-31T09:06:21;21.88;58.03
64874;HTU21D;51367;45.204;38.576;2023-10-31T09:08:47;21.91;57.92
64874;HTU21D;51367;45.204;38.576;2023-10-31T09:11:12;21.91;57.98
64874;HTU21D;51367;45.204;38.576;2023-10-31T09:13:38;21.97;58.05
64874;HTU21D;51367;45.204;38.576;2023-10-31T09:16:04;22.03;57.87
64874;HTU21D;51367;45.204;38.576;2023-10-31T09:18:30;22.07;57.87
64874;HTU21D;51367;45.204;38.576;2023-10-31T09:20:56;22.12;57.95
64874;HTU21D;51367;45.204;38.576;2023-10-31T09:23:23;22.19;57.69
64874;HTU21D;51367;45.204;38.576;2023-10-31T09:25:49;22.25;57.45
64874;HTU21D;51367;45.204;38.576;2023-10-31T09:28:15;22.27;57.41
64874;HTU21D;51367;45.204;38.576;2023-10-31T09:30:41;22.34;57.09
64874;HTU21D;51367;45.204;38.576;2023-10-31T09:33:07;22.36;57.15
64874;HTU21D;51367;45.204;38.576;2023-10-31T09:35:33;22.41;57.06
64874;HTU21D;51367;45.204;38.576;2023-10-31T09:37:59;22.48;57.11
64874;HTU21D;51367;45.204;38.576;2023-10-31T09:40:25;22.55;57.06
64874;HTU21D;51367;45.204;38.576;2023-10-31T09:42:51;22.63;57.04
64874;HTU21D;51367;45.204;38.576;2023-10-31T09:45:17;22.69;57.03
64874;HTU21D;51367;45.204;38.576;2023-10-31T09:47:43;22.76;56.94
64874;HTU21D;51367;45.204;38.576;2023-10-31T09:50:10;22.83;56.81
64874;HTU21D;51367;45.204;38.576;2023-10-31T09:52:37;22.92;56.68
64874;HTU21D;51367;45.204;38.576;2023-10-31T09:55:03;23.00;56.28
64874;HTU21D;51367;45.204;38.576;2023-10-31T09:57:31;23.05;56.18
64874;HTU21D;51367;45.204;38.576;2023-10-31T09:59:57;23.11;56.13
64874;HTU21D;51367;45.204;38.576;2023-10-31T10:02:24;23.18;56.00
64874;HTU21D;51367;45.204;38.576;2023-10-31T10:04:51;23.25;55.94
64874;HTU21D;51367;45.204;38.576;2023-10-31T10:07:18;23.32;55.89
64874;HTU21D;51367;45.204;38.576;2023-10-31T10:09:45;23.41;55.78
64874;HTU21D;51367;45.204;38.576;2023-10-31T10:12:12;23.43;55.36
64874;HTU21D;51367;45.204;38.576;2023-10-31T10:14:39;23.40;55.46
64874;HTU21D;51367;45.204;38.576;2023-10-31T10:17:34;23.44;55.45
64874;HTU21D;51367;45.204;38.576;2023-10-31T10:20:11;23.50;55.29
64874;HTU21D;51367;45.204;38.576;2023-10-31T10:35:54;23.68;55.36
64874;HTU21D;51367;45.204;38.576;2023-10-31T10:38:21;23.71;55.25
64874;HTU21D;51367;45.204;38.576;2023-10-31T10:40:48;23.77;55.24
64874;HTU21D;51367;45.204;38.576;2023-10-31T10:43:21;23.84;54.97
64874;HTU21D;51367;45.204;38.576;2023-10-31T10:48:19;23.96;54.33
64874;HTU21D;51367;45.204;38.576;2023-10-31T10:50:46;23.99;54.34
64874;HTU21D;51367;45.204;38.576;2023-10-31T10:53:23;24.00;54.10
64874;HTU21D;51367;45.204;38.576;2023-10-31T10:55:57;24.01;54.13
64874;HTU21D;51367;45.204;38.576;2023-10-31T10:58:51;24.02;54.12
64874;HTU21D;51367;45.204;38.576;2023-10-31T11:01:19;24.09;53.96
64874;HTU21D;51367;45.204;38.576;2023-10-31T11:03:46;24.13;53.81
64874;HTU21D;51367;45.204;38.576;2023-10-31T11:06:12;24.14;53.67
64874;HTU21D;51367;45.204;38.576;2023-10-31T11:08:40;24.17;53.65
64874;HTU21D;51367;45.204;38.576;2023-10-31T11:11:06;24.23;53.57
64874;HTU21D;51367;45.204;38.576;2023-10-31T11:13:32;24.28;53.51
64874;HTU21D;51367;45.204;38.576;2023-10-31T11:16:04;24.35;53.27
64874;HTU21D;51367;45.204;38.576;2023-10-31T11:18:32;24.39;53.15
64874;HTU21D;51367;45.204;38.576;2023-10-31T11:20:58;24.41;53.07
64874;HTU21D;51367;45.204;38.576;2023-10-31T11:23:24;24.43;52.77
64874;HTU21D;51367;45.204;38.576;2023-10-31T11:25:50;24.45;52.56
64874;HTU21D;51367;45.204;38.576;2023-10-31T11:28:19;24.47;52.35
64874;HTU21D;51367;45.204;38.576;2023-10-31T11:30:48;24.48;52.43
64874;HTU21D;51367;45.204;38.576;2023-10-31T11:33:16;24.51;52.45
64874;HTU21D;51367;45.204;38.576;2023-10-31T11:36:10;24.51;52.53
64874;HTU21D;51367;45.204;38.576;2023-10-31T11:38:37;24.54;52.65
64874;HTU21D;51367;45.204;38.576;2023-10-31T11:41:04;24.56;52.48
64874;HTU21D;51367;45.204;38.576;2023-10-31T11:43:57;24.60;52.22
64874;HTU21D;51367;45.204;38.576;2023-10-31T11:46:23;24.61;52.42
64874;HTU21D;51367;45.204;38.576;2023-10-31T11:48:55;24.59;52.43
64874;HTU21D;51367;45.204;38.576;2023-10-31T11:51:26;24.61;52.37
64874;HTU21D;51367;45.204;38.576;2023-10-31T11:53:52;24.59;52.34
64874;HTU21D;51367;45.204;38.576;2023-10-31T11:56:21;24.59;52.25
64874;HTU21D;51367;45.204;38.576;2023-10-31T11:59:03;24.61;52.11
64874;HTU21D;51367;45.204;38.576;2023-10-31T12:01:29;24.60;52.24
64874;HTU21D;51367;45.204;38.576;2023-10-31T12:03:55;24.59;52.05
64874;HTU21D;51367;45.204;38.576;2023-10-31T12:06:21;24.60;52.04
64874;HTU21D;51367;45.204;38.576;2023-10-31T12:08:48;24.60;52.04
64874;HTU21D;51367;45.204;38.576;2023-10-31T12:11:16;24.59;51.92
64874;HTU21D;51367;45.204;38.576;2023-10-31T12:13:59;24.59;51.85
64874;HTU21D;51367;45.204;38.576;2023-10-31T12:16:27;24.58;51.97
64874;HTU21D;51367;45.204;38.576;2023-10-31T12:18:58;24.57;51.89
64874;HTU21D;51367;45.204;38.576;2023-10-31T12:21:41;24.57;51.56
64874;HTU21D;51367;45.204;38.576;2023-10-31T12:24:12;24.55;51.66
64874;HTU21D;51367;45.204;38.576;2023-10-31T12:26:39;24.54;51.64
64874;HTU21D;51367;45.204;38.576;2023-10-31T12:29:15;24.48;51.53
64874;HTU21D;51367;45.204;38.576;2023-10-31T12:31:54;24.45;51.62
64874;HTU21D;51367;45.204;38.576;2023-10-31T12:34:22;24.41;51.56
64874;HTU21D;51367;45.204;38.576;2023-10-31T12:36:51;24.40;51.63
64874;HTU21D;51367;45.204;38.576;2023-10-31T12:39:20;24.36;51.53
64874;HTU21D;51367;45.204;38.576;2023-10-31T12:41:47;24.33;51.53
64874;HTU21D;51367;45.204;38.576;2023-10-31T12:44:23;24.31;51.62
64874;HTU21D;51367;45.204;38.576;2023-10-31T12:46:50;24.29;51.59
64874;HTU21D;51367;45.204;38.576;2023-10-31T12:49:18;24.26;51.67
64874;HTU21D;51367;45.204;38.576;2023-10-31T12:52:03;24.21;51.56
64874;HTU21D;51367;45.204;38.576;2023-10-31T12:54:35;24.17;51.20
64874;HTU21D;51367;45.204;38.576;2023-10-31T12:57:05;24.13;51.51
64874;HTU21D;51367;45.204;38.576;2023-10-31T12:59:32;24.11;51.62
64874;HTU21D;51367;45.204;38.576;2023-10-31T13:01:58;24.05;51.69
64874;HTU21D;51367;45.204;38.576;2023-10-31T13:04:27;24.02;51.72
64874;HTU21D;51367;45.204;38.576;2023-10-31T13:07:01;23.98;51.79
64874;HTU21D;51367;45.204;38.576;2023-10-31T13:09:35;23.92;51.84
64874;HTU21D;51367;45.204;38.576;2023-10-31T13:12:03;23.88;51.94
64874;HTU21D;51367;45.204;38.576;2023-10-31T13:14:29;23.84;51.91
64874;HTU21D;51367;45.204;38.576;2023-10-31T13:16:55;23.79;51.99
64874;HTU21D;51367;45.204;38.576;2023-10-31T13:19:21;23.74;52.07
64874;HTU21D;51367;45.204;38.576;2023-10-31T13:21:48;23.68;52.14
64874;HTU21D;51367;45.204;38.576;2023-10-31T13:24:14;23.62;52.29
64874;HTU21D;51367;45.204;38.576;2023-10-31T13:26:40;23.54;52.35
64874;HTU21D;51367;45.204;38.576;2023-10-31T13:29:06;23.44;52.49
64874;HTU21D;51367;45.204;38.576;2023-10-31T13:31:32;23.35;52.64
64874;HTU21D;51367;45.204;38.576;2023-10-31T13:33:58;23.26;52.82
64874;HTU21D;51367;45.204;38.576;2023-10-31T13:36:25;23.15;53.00
64874;HTU21D;51367;45.204;38.576;2023-10-31T13:38:51;23.05;53.16
64874;HTU21D;51367;45.204;38.576;2023-10-31T13:41:17;22.95;53.35
64874;HTU21D;51367;45.204;38.576;2023-10-31T13:43:43;22.85;53.49
64874;HTU21D;51367;45.204;38.576;2023-10-31T13:46:09;22.77;53.64
64874;HTU21D;51367;45.204;38.576;2023-10-31T13:48:35;22.66;53.76
64874;HTU21D;51367;45.204;38.576;2023-10-31T13:51:01;22.56;53.94
64874;HTU21D;51367;45.204;38.576;2023-10-31T13:53:27;22.44;54.07
64874;HTU21D;51367;45.204;38.576;2023-10-31T13:55:53;22.35;54.25
64874;HTU21D;51367;45.204;38.576;2023-10-31T13:58:19;22.24;54.41
64874;HTU21D;51367;45.204;38.576;2023-10-31T14:00:46;22.12;54.58
64874;HTU21D;51367;45.204;38.576;2023-10-31T14:03:12;22.01;54.73
64874;HTU21D;51367;45.204;38.576;2023-10-31T14:05:37;21.91;54.91
64874;HTU21D;51367;45.204;38.576;2023-10-31T14:08:04;21.76;55.05
64874;HTU21D;51367;45.204;38.576;2023-10-31T14:10:31;21.61;55.27
64874;HTU21D;51367;45.204;38.576;2023-10-31T14:12:57;21.48;55.50
64874;HTU21D;51367;45.204;38.576;2023-10-31T14:15:23;21.33;55.68
64874;HTU21D;51367;45.204;38.576;2023-10-31T14:17:52;21.21;55.87
64874;HTU21D;51367;45.204;38.576;2023-10-31T14:20:18;21.06;56.06
64874;HTU21D;51367;45.204;38.576;2023-10-31T14:22:48;20.90;56.28
64874;HTU21D;51367;45.204;38.576;2023-10-31T14:25:14;20.74;56.50
64874;HTU21D;51367;45.204;38.576;2023-10-31T14:27:41;20.57;56.77
64874;HTU21D;51367;45.204;38.576;2023-10-31T14:30:09;20.43;57.00
64874;HTU21D;51367;45.204;38.576;2023-10-31T14:32:35;20.30;57.18
64874;HTU21D;51367;45.204;38.576;2023-10-31T14:35:01;20.18;57.34
64874;HTU21D;51367;45.204;38.576;2023-10-31T14:37:27;20.10;57.45
64874;HTU21D;51367;45.204;38.576;2023-10-31T14:39:53;20.01;57.55
64874;HTU21D;51367;45.204;38.576;2023-10-31T14:42:20;19.91;57.64
64874;HTU21D;51367;45.204;38.576;2023-10-31T14:44:47;19.83;57.74
64874;HTU21D;51367;45.204;38.576;2023-10-31T14:47:12;19.75;57.85
64874;HTU21D;51367;45.204;38.576;2023-10-31T14:49:38;19.67;57.95
64874;HTU21D;51367;45.204;38.576;2023-10-31T14:52:05;19.57;58.05
64874;HTU21D;51367;45.204;38.576;2023-10-31T14:54:35;19.48;58.16
64874;HTU21D;51367;45.204;38.576;2023-10-31T14:57:02;19.39;58.25
64874;HTU21D;51367;45.204;38.576;2023-10-31T14:59:28;19.32;58.38
64874;HTU21D;51367;45.204;38.576;2023-10-31T15:01:54;19.23;58.48
64874;HTU21D;51367;45.204;38.576;2023-10-31T15:04:20;19.14;58.58
64874;HTU21D;51367;45.204;38.576;2023-10-31T15:06:46;19.08;58.67
64874;HTU21D;51367;45.204;38.576;2023-10-31T15:09:12;19.00;58.77
64874;HTU21D;51367;45.204;38.576;2023-10-31T15:11:38;18.94;58.84
64874;HTU21D;51367;45.204;38.576;2023-10-31T15:14:04;18.87;58.92
64874;HTU21D;51367;45.204;38.576;2023-10-31T15:16:30;18.81;58.99
64874;HTU21D;51367;45.204;38.576;2023-10-31T15:18:57;18.76;59.06
64874;HTU21D;51367;45.204;38.576;2023-10-31T15:21:24;18.70;59.11